createdAt,value
2023-02-08T00:01:56.976Z,26.77
2023-02-08T00:07:18.591Z,27.73
2023-02-08T00:12:40.027Z,27.03
2023-02-08T00:18:01.782Z,28.17
2023-02-08T00:23:23.890Z,26.77
2023-02-08T00:28:45.850Z,26.53
2023-02-08T00:34:07.164Z,27.63
2023-02-08T00:39:28.532Z,24.03
2023-02-08T00:44:50.626Z,25.03
2023-02-08T00:50:12.627Z,24.10
2023-02-08T00:55:33.965Z,23.63
2023-02-08T01:00:56.016Z,24.00
2023-02-08T01:06:18.627Z,25.03
2023-02-08T01:11:41.524Z,23.47
2023-02-08T01:17:03.297Z,26.07
2023-02-08T01:22:24.787Z,24.70
2023-02-08T01:27:46.387Z,23.90
2023-02-08T01:33:07.852Z,21.10
2023-02-08T01:38:29.123Z,23.07
2023-02-08T01:44:12.477Z,28.43
2023-02-08T01:49:38.301Z,23.97
2023-02-08T01:55:11.968Z,21.47
2023-02-08T02:00:34.074Z,22.27
2023-02-08T02:06:03.135Z,22.57
2023-02-08T02:11:26.218Z,23.67
2023-02-08T02:16:48.241Z,22.97
2023-02-08T02:22:13.049Z,22.67
2023-02-08T02:28:11.256Z,24.10
2023-02-08T02:34:01.161Z,20.77
2023-02-08T02:39:42.466Z,21.70
2023-02-08T02:45:23.719Z,22.13
2023-02-08T02:50:49.277Z,20.73
2023-02-08T02:56:16.996Z,21.53
2023-02-08T03:01:40.001Z,20.20
2023-02-08T03:07:19.972Z,23.43
2023-02-08T03:12:53.109Z,21.40
2023-02-08T03:18:48.376Z,18.97
2023-02-08T03:24:28.256Z,18.23
2023-02-08T03:30:03.414Z,18.57
2023-02-08T03:35:53.041Z,21.23
2023-02-08T03:41:20.996Z,22.43
2023-02-08T03:46:49.784Z,18.67
2023-02-08T03:52:11.900Z,17.30
2023-02-08T03:57:40.953Z,19.47
2023-02-08T04:03:20.415Z,19.70
2023-02-08T04:08:42.005Z,17.57
2023-02-08T04:14:03.228Z,18.13
2023-02-08T04:19:24.765Z,17.97
2023-02-08T04:24:46.184Z,16.30
2023-02-08T04:30:09.373Z,15.63
2023-02-08T04:35:31.062Z,15.90
2023-02-08T04:40:52.665Z,17.53
2023-02-08T04:46:14.273Z,16.90
2023-02-08T04:51:35.725Z,15.30
2023-02-08T04:56:56.877Z,18.20
2023-02-08T05:02:18.360Z,16.33
2023-02-08T05:07:39.915Z,16.17
2023-02-08T05:13:01.674Z,15.60
2023-02-08T05:18:23.089Z,15.57
2023-02-08T05:23:46.934Z,14.60
2023-02-08T05:29:08.555Z,14.07
2023-02-08T05:34:30.285Z,15.33
2023-02-08T05:39:52.070Z,15.37
2023-02-08T05:45:13.855Z,14.37
2023-02-08T05:50:35.107Z,14.00
2023-02-08T05:55:58.352Z,13.00
2023-02-08T06:01:20.152Z,13.63
2023-02-08T06:06:41.634Z,13.93
2023-02-08T06:12:03.332Z,14.73
2023-02-08T06:17:24.824Z,14.73
2023-02-08T06:22:46.664Z,13.13
2023-02-08T06:28:10.862Z,14.50
2023-02-08T06:33:32.542Z,8.67
2023-02-08T06:38:53.859Z,10.73
2023-02-08T06:44:15.591Z,9.03
2023-02-08T06:49:37.162Z,8.03
2023-02-08T06:54:58.714Z,13.37
2023-02-08T07:00:20.144Z,14.33
2023-02-08T07:05:49.500Z,9.97
2023-02-08T07:11:19.783Z,17.67
2023-02-08T07:16:41.790Z,16.67
2023-02-08T07:22:08.467Z,17.10
2023-02-08T07:27:30.313Z,14.77
2023-02-08T07:32:51.832Z,18.13
2023-02-08T07:38:13.540Z,17.87
2023-02-08T07:43:36.110Z,19.50
2023-02-08T07:48:58.501Z,19.37
2023-02-08T07:54:20.005Z,18.33
2023-02-08T07:59:41.601Z,19.47
2023-02-08T08:05:03.134Z,19.97
2023-02-08T08:10:24.647Z,18.93
2023-02-08T08:15:50.854Z,20.60
2023-02-08T08:21:12.494Z,20.80
2023-02-08T08:26:34.020Z,21.50
2023-02-08T08:31:55.634Z,23.00
2023-02-08T08:37:16.978Z,24.00
2023-02-08T08:42:41.973Z,22.77
2023-02-08T08:48:05.251Z,23.37
2023-02-08T08:53:26.821Z,21.67
2023-02-08T08:58:48.430Z,18.97
2023-02-08T09:04:11.307Z,20.47
2023-02-08T09:09:32.945Z,18.00
2023-02-08T09:14:54.487Z,21.90
2023-02-08T09:20:16.351Z,20.77
2023-02-08T09:25:38.248Z,20.87
2023-02-08T09:31:01.790Z,14.53
2023-02-08T09:36:25.990Z,18.40
2023-02-08T09:42:29.256Z,11.63
2023-02-08T09:48:05.137Z,17.30
2023-02-08T09:53:35.280Z,19.33
2023-02-08T09:58:58.845Z,11.40
2023-02-08T10:04:52.011Z,12.03
2023-02-08T10:10:36.246Z,7.80
2023-02-08T10:16:04.537Z,11.07
2023-02-08T10:21:34.056Z,15.87
2023-02-08T10:27:15.956Z,16.37
2023-02-08T10:33:04.713Z,19.50
2023-02-08T10:38:45.965Z,16.33
2023-02-08T10:44:29.205Z,12.47
2023-02-08T10:49:57.997Z,14.80
2023-02-08T10:55:21.199Z,18.87
2023-02-08T11:00:43.973Z,9.70
2023-02-08T11:06:06.390Z,12.90
2023-02-08T11:11:33.964Z,14.57
2023-02-08T11:16:57.562Z,16.37
2023-02-08T11:22:21.189Z,19.00
2023-02-08T11:27:49.448Z,18.30
2023-02-08T11:33:18.990Z,13.00
2023-02-08T11:38:42.956Z,17.97
2023-02-08T11:44:07.021Z,18.27
2023-02-08T11:49:38.705Z,15.87
2023-02-08T11:55:18.564Z,20.10
2023-02-08T12:00:40.880Z,16.30
2023-02-08T12:06:43.979Z,18.13
2023-02-08T12:12:12.862Z,18.47
2023-02-08T12:17:45.787Z,16.67
2023-02-08T12:23:32.146Z,8.87
2023-02-08T12:29:21.385Z,15.30
2023-02-08T12:34:51.733Z,12.40
2023-02-08T12:40:41.822Z,12.87
2023-02-08T12:46:15.178Z,16.00
2023-02-08T12:51:40.834Z,10.53
2023-02-08T12:57:03.685Z,13.00
2023-02-08T13:02:46.337Z,13.00
2023-02-08T13:08:31.272Z,11.90
2023-02-08T13:14:10.939Z,13.93
2023-02-08T13:20:00.626Z,12.03
2023-02-08T13:25:32.651Z,13.37
2023-02-08T13:31:32.131Z,6.70
2023-02-08T13:36:59.668Z,13.63
2023-02-08T13:42:28.547Z,13.70
2023-02-08T13:47:57.275Z,14.10
2023-02-08T13:53:38.313Z,14.60
2023-02-08T13:59:01.371Z,15.00
2023-02-08T14:04:33.791Z,11.70
2023-02-08T14:10:16.258Z,14.53
2023-02-08T14:15:40.077Z,15.30
2023-02-08T14:21:07.608Z,10.60
2023-02-08T14:26:29.960Z,11.03
2023-02-08T14:31:51.577Z,16.07
2023-02-08T14:37:18.459Z,15.43
2023-02-08T14:42:54.789Z,15.23
2023-02-08T14:48:21.361Z,16.60
2023-02-08T14:53:46.318Z,15.30
2023-02-08T14:59:18.243Z,8.57
2023-02-08T15:04:44.466Z,16.70
2023-02-08T15:10:15.159Z,15.53
2023-02-08T15:15:40.389Z,15.60
2023-02-08T15:21:03.985Z,15.67
2023-02-08T15:26:26.021Z,16.73
2023-02-08T15:31:48.337Z,17.57
2023-02-08T15:37:17.906Z,17.17
2023-02-08T15:42:44.436Z,15.40
2023-02-08T15:48:09.124Z,16.90
2023-02-08T15:53:31.127Z,19.67
2023-02-08T15:58:57.285Z,18.33
2023-02-08T16:04:19.127Z,19.43
2023-02-08T16:09:40.514Z,21.37
2023-02-08T16:15:02.272Z,22.30
2023-02-08T16:20:42.430Z,20.10
2023-02-08T16:26:41.745Z,19.77
2023-02-08T16:32:12.929Z,22.00
2023-02-08T16:37:36.238Z,19.00
2023-02-08T16:43:16.588Z,21.57
2023-02-08T16:48:43.324Z,22.73
2023-02-08T16:54:07.679Z,20.60
2023-02-08T16:59:29.420Z,18.27
2023-02-08T17:04:54.663Z,22.60
2023-02-08T17:10:23.850Z,22.53
2023-02-08T17:15:46.896Z,23.83
2023-02-08T17:21:09.575Z,23.37
2023-02-08T17:26:39.122Z,24.03
2023-02-08T17:32:03.250Z,22.37
2023-02-08T17:37:24.789Z,21.67
2023-02-08T17:42:47.664Z,19.70
2023-02-08T17:48:09.561Z,23.97
2023-02-08T17:53:31.157Z,24.67
2023-02-08T17:58:54.622Z,24.67
2023-02-08T18:04:16.077Z,24.10
2023-02-08T18:09:39.375Z,22.77
2023-02-08T18:15:01.136Z,24.67
2023-02-08T18:20:22.649Z,24.73
2023-02-08T18:25:44.688Z,26.40
2023-02-08T18:31:08.561Z,26.13
2023-02-08T18:36:29.687Z,25.57
2023-02-08T18:41:52.169Z,17.67
2023-02-08T18:47:13.976Z,24.00
2023-02-08T18:52:35.648Z,24.50
2023-02-08T18:57:56.893Z,21.43
2023-02-08T19:03:19.426Z,22.10
2023-02-08T19:08:41.696Z,22.43
2023-02-08T19:14:05.080Z,23.07
2023-02-08T19:19:26.563Z,23.03
2023-02-08T19:24:47.942Z,23.57
2023-02-08T19:30:10.286Z,21.17
2023-02-08T19:35:35.961Z,23.07
2023-02-08T19:40:57.601Z,22.47
2023-02-08T19:46:25.755Z,21.37
2023-02-08T19:51:47.037Z,21.80
2023-02-08T19:57:11.959Z,21.97
2023-02-08T20:02:33.447Z,19.97
2023-02-08T20:07:54.824Z,15.37
2023-02-08T20:13:16.316Z,14.83
2023-02-08T20:18:37.933Z,15.77
2023-02-08T20:24:01.210Z,14.23
2023-02-08T20:29:22.915Z,14.63
2023-02-08T20:34:54.026Z,10.90
2023-02-08T20:40:20.333Z,12.00
2023-02-08T20:45:43.087Z,10.10
2023-02-08T20:51:06.325Z,10.63
2023-02-08T20:56:36.257Z,8.13
2023-02-08T21:01:57.819Z,6.03
2023-02-08T21:07:19.321Z,8.27
2023-02-08T21:12:40.755Z,6.47
2023-02-08T21:18:02.427Z,7.60
2023-02-08T21:23:23.690Z,8.20
2023-02-08T21:28:46.149Z,8.17
2023-02-08T21:34:07.953Z,8.23
2023-02-08T21:39:29.612Z,7.87
2023-02-08T21:44:51.056Z,8.80
2023-02-08T21:50:31.139Z,7.87
2023-02-08T21:55:52.763Z,8.20
2023-02-08T22:01:14.097Z,7.37
2023-02-08T22:06:35.727Z,7.50
2023-02-08T22:11:57.663Z,7.30
2023-02-08T22:17:19.654Z,7.03
2023-02-08T22:22:41.492Z,6.67
2023-02-08T22:28:02.860Z,6.83
2023-02-08T22:33:24.352Z,6.70
2023-02-08T22:38:45.661Z,7.30
2023-02-08T22:44:10.072Z,7.23
2023-02-08T22:49:31.784Z,6.97
2023-02-08T22:54:54.024Z,7.77
2023-02-08T23:00:16.280Z,7.37
2023-02-08T23:05:49.000Z,8.77
2023-02-08T23:11:12.873Z,7.87
2023-02-08T23:16:34.468Z,7.67
2023-02-08T23:21:59.685Z,7.60
2023-02-08T23:27:21.259Z,6.67
2023-02-08T23:32:43.816Z,7.63
2023-02-08T23:38:05.300Z,8.00
2023-02-08T23:43:26.507Z,7.20
2023-02-08T23:48:48.773Z,6.47
2023-02-08T23:54:10.358Z,7.00
2023-02-08T23:59:32.426Z,7.10
